sensor_id;sensor_type;location;lat;lon;timestamp;temperature;humidity
38456;DHT22;24237;50.106;20.014;2022-08-25T00:01:44;21.80;99.90
38456;DHT22;24237;50.106;20.014;2022-08-25T00:04:15;22.00;99.90
38456;DHT22;24237;50.106;20.014;2022-08-25T00:06:43;22.30;99.90
38456;DHT22;24237;50.106;20.014;2022-08-25T00:09:11;22.10;99.90
38456;DHT22;24237;50.106;20.014;2022-08-25T00:11:38;21.90;99.90
38456;DHT22;24237;50.106;20.014;2022-08-25T00:14:11;22.00;99.90
38456;DHT22;24237;50.106;20.014;2022-08-25T00:16:37;21.80;99.90
38456;DHT22;24237;50.106;20.014;2022-08-25T00:19:07;21.70;99.90
38456;DHT22;24237;50.106;20.014;2022-08-25T00:21:33;21.70;99.90
38456;DHT22;24237;50.106;20.014;2022-08-25T00:24:00;21.80;99.90
38456;DHT22;24237;50.106;20.014;2022-08-25T00:26:26;21.90;99.90
38456;DHT22;24237;50.106;20.014;2022-08-25T00:28:52;21.90;99.90
38456;DHT22;24237;50.106;20.014;2022-08-25T00:31:25;21.70;99.90
38456;DHT22;24237;50.106;20.014;2022-08-25T00:33:52;21.60;99.90
38456;DHT22;24237;50.106;20.014;2022-08-25T00:36:18;21.60;99.90
38456;DHT22;24237;50.106;20.014;2022-08-25T00:38:46;21.40;99.90
38456;DHT22;24237;50.106;20.014;2022-08-25T00:41:17;21.40;99.90
38456;DHT22;24237;50.106;20.014;2022-08-25T00:46:24;21.40;99.90
38456;DHT22;24237;50.106;20.014;2022-08-25T00:48:55;21.30;99.90
38456;DHT22;24237;50.106;20.014;2022-08-25T00:51:37;21.30;99.90
38456;DHT22;24237;50.106;20.014;2022-08-25T00:54:04;21.30;99.90
38456;DHT22;24237;50.106;20.014;2022-08-25T00:56:31;21.30;99.90
38456;DHT22;24237;50.106;20.014;2022-08-25T00:58:59;21.30;99.90
38456;DHT22;24237;50.106;20.014;2022-08-25T01:01:25;21.30;99.90
38456;DHT22;24237;50.106;20.014;2022-08-25T01:03:51;21.50;99.90
38456;DHT22;24237;50.106;20.014;2022-08-25T01:06:17;21.60;99.90
38456;DHT22;24237;50.106;20.014;2022-08-25T01:08:44;21.40;99.90
38456;DHT22;24237;50.106;20.014;2022-08-25T01:11:11;21.40;99.90
38456;DHT22;24237;50.106;20.014;2022-08-25T01:13:46;21.30;99.90
38456;DHT22;24237;50.106;20.014;2022-08-25T01:16:14;21.40;99.90
38456;DHT22;24237;50.106;20.014;2022-08-25T01:18:55;21.30;99.90
38456;DHT22;24237;50.106;20.014;2022-08-25T01:21:24;21.30;99.90
38456;DHT22;24237;50.106;20.014;2022-08-25T01:23:50;21.20;99.90
38456;DHT22;24237;50.106;20.014;2022-08-25T01:26:29;21.20;99.90
38456;DHT22;24237;50.106;20.014;2022-08-25T01:28:55;21.30;99.90
38456;DHT22;24237;50.106;20.014;2022-08-25T01:31:40;21.30;99.90
38456;DHT22;24237;50.106;20.014;2022-08-25T01:34:07;21.30;99.90
38456;DHT22;24237;50.106;20.014;2022-08-25T01:36:33;21.20;99.90
38456;DHT22;24237;50.106;20.014;2022-08-25T01:38:59;21.30;99.90
38456;DHT22;24237;50.106;20.014;2022-08-25T01:43:54;21.50;99.90
38456;DHT22;24237;50.106;20.014;2022-08-25T01:46:21;21.10;99.90
38456;DHT22;24237;50.106;20.014;2022-08-25T01:48:46;21.10;99.90
38456;DHT22;24237;50.106;20.014;2022-08-25T01:51:14;21.10;99.90
38456;DHT22;24237;50.106;20.014;2022-08-25T01:53:40;21.10;99.90
38456;DHT22;24237;50.106;20.014;2022-08-25T01:56:11;21.00;99.90
38456;DHT22;24237;50.106;20.014;2022-08-25T01:58:41;21.10;99.90
38456;DHT22;24237;50.106;20.014;2022-08-25T02:01:10;21.20;99.90
38456;DHT22;24237;50.106;20.014;2022-08-25T02:03:41;21.30;99.90
38456;DHT22;24237;50.106;20.014;2022-08-25T02:06:07;21.20;99.90
38456;DHT22;24237;50.106;20.014;2022-08-25T02:08:33;21.20;99.90
38456;DHT22;24237;50.106;20.014;2022-08-25T02:10:59;21.40;99.90
38456;DHT22;24237;50.106;20.014;2022-08-25T02:13:28;21.20;99.90
38456;DHT22;24237;50.106;20.014;2022-08-25T02:15:55;21.20;99.90
38456;DHT22;24237;50.106;20.014;2022-08-25T02:18:22;21.30;99.90
38456;DHT22;24237;50.106;20.014;2022-08-25T02:20:48;21.20;99.90
38456;DHT22;24237;50.106;20.014;2022-08-25T02:23:14;21.40;99.90
38456;DHT22;24237;50.106;20.014;2022-08-25T02:25:41;21.40;99.90
38456;DHT22;24237;50.106;20.014;2022-08-25T02:28:10;21.20;99.90
38456;DHT22;24237;50.106;20.014;2022-08-25T02:30:36;21.30;99.90
38456;DHT22;24237;50.106;20.014;2022-08-25T02:33:02;21.30;99.90
38456;DHT22;24237;50.106;20.014;2022-08-25T02:35:28;21.30;99.90
38456;DHT22;24237;50.106;20.014;2022-08-25T02:37:54;21.40;99.90
38456;DHT22;24237;50.106;20.014;2022-08-25T02:40:23;21.40;99.90
38456;DHT22;24237;50.106;20.014;2022-08-25T02:42:50;21.30;99.90
38456;DHT22;24237;50.106;20.014;2022-08-25T02:45:19;21.40;99.90
38456;DHT22;24237;50.106;20.014;2022-08-25T02:47:45;21.40;99.90
38456;DHT22;24237;50.106;20.014;2022-08-25T02:50:11;21.30;99.90
38456;DHT22;24237;50.106;20.014;2022-08-25T02:52:57;21.30;99.90
38456;DHT22;24237;50.106;20.014;2022-08-25T02:55:23;21.20;99.90
38456;DHT22;24237;50.106;20.014;2022-08-25T02:57:48;21.10;99.90
38456;DHT22;24237;50.106;20.014;2022-08-25T03:00:15;21.00;99.90
38456;DHT22;24237;50.106;20.014;2022-08-25T03:02:42;21.10;99.90
38456;DHT22;24237;50.106;20.014;2022-08-25T03:05:09;21.10;99.90
38456;DHT22;24237;50.106;20.014;2022-08-25T03:07:36;21.00;99.90
38456;DHT22;24237;50.106;20.014;2022-08-25T03:10:12;21.00;99.90
38456;DHT22;24237;50.106;20.014;2022-08-25T03:12:38;21.20;99.90
38456;DHT22;24237;50.106;20.014;2022-08-25T03:15:06;21.30;99.90
38456;DHT22;24237;50.106;20.014;2022-08-25T03:17:37;21.10;99.90
38456;DHT22;24237;50.106;20.014;2022-08-25T03:20:05;21.10;99.90
38456;DHT22;24237;50.106;20.014;2022-08-25T03:22:31;21.10;99.90
38456;DHT22;24237;50.106;20.014;2022-08-25T03:24:57;21.20;99.90
38456;DHT22;24237;50.106;20.014;2022-08-25T03:27:43;21.10;99.90
38456;DHT22;24237;50.106;20.014;2022-08-25T03:30:09;21.00;99.90
38456;DHT22;24237;50.106;20.014;2022-08-25T03:32:35;21.00;99.90
38456;DHT22;24237;50.106;20.014;2022-08-25T03:35:01;20.90;99.90
38456;DHT22;24237;50.106;20.014;2022-08-25T03:37:26;21.00;99.90
38456;DHT22;24237;50.106;20.014;2022-08-25T03:39:52;21.00;99.90
38456;DHT22;24237;50.106;20.014;2022-08-25T03:42:18;21.00;99.90
38456;DHT22;24237;50.106;20.014;2022-08-25T03:44:44;20.90;99.90
38456;DHT22;24237;50.106;20.014;2022-08-25T03:47:09;20.90;99.90
38456;DHT22;24237;50.106;20.014;2022-08-25T03:49:35;20.90;99.90
38456;DHT22;24237;50.106;20.014;2022-08-25T03:52:01;20.90;99.90
38456;DHT22;24237;50.106;20.014;2022-08-25T03:54:27;20.90;99.90
38456;DHT22;24237;50.106;20.014;2022-08-25T03:56:55;20.90;99.90
38456;DHT22;24237;50.106;20.014;2022-08-25T03:59:21;21.10;99.90
38456;DHT22;24237;50.106;20.014;2022-08-25T04:01:47;21.00;99.90
38456;DHT22;24237;50.106;20.014;2022-08-25T04:04:14;20.90;99.90
38456;DHT22;24237;50.106;20.014;2022-08-25T04:06:41;21.00;99.90
38456;DHT22;24237;50.106;20.014;2022-08-25T04:09:08;21.00;99.90
38456;DHT22;24237;50.106;20.014;2022-08-25T04:11:33;21.10;99.90
38456;DHT22;24237;50.106;20.014;2022-08-25T04:13:59;21.30;99.90
38456;DHT22;24237;50.106;20.014;2022-08-25T04:16:29;21.50;99.90
38456;DHT22;24237;50.106;20.014;2022-08-25T04:18:57;21.40;99.90
38456;DHT22;24237;50.106;20.014;2022-08-25T04:21:24;21.40;99.90
38456;DHT22;24237;50.106;20.014;2022-08-25T04:23:51;21.30;99.90
38456;DHT22;24237;50.106;20.014;2022-08-25T04:26:41;21.50;99.90
38456;DHT22;24237;50.106;20.014;2022-08-25T04:29:09;21.40;99.90
38456;DHT22;24237;50.106;20.014;2022-08-25T04:31:35;21.40;99.90
38456;DHT22;24237;50.106;20.014;2022-08-25T04:34:03;21.40;99.90
38456;DHT22;24237;50.106;20.014;2022-08-25T04:36:30;21.50;99.90
38456;DHT22;24237;50.106;20.014;2022-08-25T04:38:57;21.60;99.90
38456;DHT22;24237;50.106;20.014;2022-08-25T04:41:24;21.60;99.90
38456;DHT22;24237;50.106;20.014;2022-08-25T04:43:50;21.70;99.90
38456;DHT22;24237;50.106;20.014;2022-08-25T04:46:22;21.70;99.90
38456;DHT22;24237;50.106;20.014;2022-08-25T04:49:00;21.70;99.90
38456;DHT22;24237;50.106;20.014;2022-08-25T04:51:36;21.80;99.90
38456;DHT22;24237;50.106;20.014;2022-08-25T04:54:04;21.90;99.90
38456;DHT22;24237;50.106;20.014;2022-08-25T04:56:31;22.10;99.90
38456;DHT22;24237;50.106;20.014;2022-08-25T04:59:04;22.10;99.90
38456;DHT22;24237;50.106;20.014;2022-08-25T05:01:31;22.00;99.90
38456;DHT22;24237;50.106;20.014;2022-08-25T05:03:59;22.30;99.90
38456;DHT22;24237;50.106;20.014;2022-08-25T05:06:25;22.30;99.90
38456;DHT22;24237;50.106;20.014;2022-08-25T05:08:51;22.30;99.90
38456;DHT22;24237;50.106;20.014;2022-08-25T05:11:17;22.40;99.90
38456;DHT22;24237;50.106;20.014;2022-08-25T05:13:48;22.50;99.90
38456;DHT22;24237;50.106;20.014;2022-08-25T05:16:15;22.40;99.90
38456;DHT22;24237;50.106;20.014;2022-08-25T05:18:41;22.70;99.90
38456;DHT22;24237;50.106;20.014;2022-08-25T05:21:11;22.90;99.90
38456;DHT22;24237;50.106;20.014;2022-08-25T05:23:38;22.80;99.90
38456;DHT22;24237;50.106;20.014;2022-08-25T05:26:10;22.80;99.90
38456;DHT22;24237;50.106;20.014;2022-08-25T05:28:38;23.00;99.90
38456;DHT22;24237;50.106;20.014;2022-08-25T05:31:06;22.90;99.90
38456;DHT22;24237;50.106;20.014;2022-08-25T05:33:33;23.10;99.90
38456;DHT22;24237;50.106;20.014;2022-08-25T05:36:00;23.10;99.90
38456;DHT22;24237;50.106;20.014;2022-08-25T05:38:26;23.40;99.90
38456;DHT22;24237;50.106;20.014;2022-08-25T05:41:03;23.50;99.90
38456;DHT22;24237;50.106;20.014;2022-08-25T05:43:30;23.60;99.90
38456;DHT22;24237;50.106;20.014;2022-08-25T05:45:57;23.60;99.90
38456;DHT22;24237;50.106;20.014;2022-08-25T05:48:23;23.60;99.90
38456;DHT22;24237;50.106;20.014;2022-08-25T05:50:58;23.80;99.90
38456;DHT22;24237;50.106;20.014;2022-08-25T05:53:25;23.90;99.90
38456;DHT22;24237;50.106;20.014;2022-08-25T05:55:52;24.00;99.90
38456;DHT22;24237;50.106;20.014;2022-08-25T05:58:19;24.30;99.90
38456;DHT22;24237;50.106;20.014;2022-08-25T06:00:45;24.40;99.90
38456;DHT22;24237;50.106;20.014;2022-08-25T06:03:11;24.50;99.90
38456;DHT22;24237;50.106;20.014;2022-08-25T06:05:37;24.50;99.90
38456;DHT22;24237;50.106;20.014;2022-08-25T06:11:10;24.50;99.90
38456;DHT22;24237;50.106;20.014;2022-08-25T06:13:37;24.40;99.90
38456;DHT22;24237;50.106;20.014;2022-08-25T06:16:03;24.30;99.90
38456;DHT22;24237;50.106;20.014;2022-08-25T06:18:29;24.50;99.90
38456;DHT22;24237;50.106;20.014;2022-08-25T06:20:54;24.60;99.90
38456;DHT22;24237;50.106;20.014;2022-08-25T06:23:20;24.80;99.90
38456;DHT22;24237;50.106;20.014;2022-08-25T06:25:50;24.70;99.90
38456;DHT22;24237;50.106;20.014;2022-08-25T06:28:16;25.00;99.90
38456;DHT22;24237;50.106;20.014;2022-08-25T06:30:42;24.90;99.90
38456;DHT22;24237;50.106;20.014;2022-08-25T06:33:07;25.00;99.90
38456;DHT22;24237;50.106;20.014;2022-08-25T06:35:33;25.20;99.90
38456;DHT22;24237;50.106;20.014;2022-08-25T06:37:59;25.50;99.90
38456;DHT22;24237;50.106;20.014;2022-08-25T06:40:24;25.50;99.90
38456;DHT22;24237;50.106;20.014;2022-08-25T06:42:50;25.70;99.90
38456;DHT22;24237;50.106;20.014;2022-08-25T06:45:16;26.00;99.90
38456;DHT22;24237;50.106;20.014;2022-08-25T06:47:43;25.80;99.90
38456;DHT22;24237;50.106;20.014;2022-08-25T06:50:09;25.90;99.90
38456;DHT22;24237;50.106;20.014;2022-08-25T06:52:34;26.10;99.90
38456;DHT22;24237;50.106;20.014;2022-08-25T06:55:01;26.30;99.90
38456;DHT22;24237;50.106;20.014;2022-08-25T06:57:27;26.10;99.90
38456;DHT22;24237;50.106;20.014;2022-08-25T06:59:53;26.30;99.90
38456;DHT22;24237;50.106;20.014;2022-08-25T07:02:19;26.50;99.90
38456;DHT22;24237;50.106;20.014;2022-08-25T07:04:44;26.60;99.90
38456;DHT22;24237;50.106;20.014;2022-08-25T07:07:11;26.70;99.90
38456;DHT22;24237;50.106;20.014;2022-08-25T07:09:37;26.80;99.90
38456;DHT22;24237;50.106;20.014;2022-08-25T07:12:02;26.60;99.90
38456;DHT22;24237;50.106;20.014;2022-08-25T07:14:29;26.70;99.90
38456;DHT22;24237;50.106;20.014;2022-08-25T07:16:55;26.70;99.90
38456;DHT22;24237;50.106;20.014;2022-08-25T07:19:21;26.90;99.90
38456;DHT22;24237;50.106;20.014;2022-08-25T07:21:50;27.00;99.90
38456;DHT22;24237;50.106;20.014;2022-08-25T07:24:17;27.00;99.90
38456;DHT22;24237;50.106;20.014;2022-08-25T07:26:43;27.30;99.90
38456;DHT22;24237;50.106;20.014;2022-08-25T07:29:20;27.30;99.90
38456;DHT22;24237;50.106;20.014;2022-08-25T07:31:45;27.40;99.90
38456;DHT22;24237;50.106;20.014;2022-08-25T07:34:11;27.50;99.90
38456;DHT22;24237;50.106;20.014;2022-08-25T07:36:56;27.40;99.90
38456;DHT22;24237;50.106;20.014;2022-08-25T07:39:26;27.50;99.90
38456;DHT22;24237;50.106;20.014;2022-08-25T07:41:52;27.40;99.90
38456;DHT22;24237;50.106;20.014;2022-08-25T07:44:19;27.20;99.90
38456;DHT22;24237;50.106;20.014;2022-08-25T07:46:45;27.30;99.90
38456;DHT22;24237;50.106;20.014;2022-08-25T07:49:11;27.70;99.90
38456;DHT22;24237;50.106;20.014;2022-08-25T07:51:37;27.80;99.90
38456;DHT22;24237;50.106;20.014;2022-08-25T07:54:04;28.00;99.90
38456;DHT22;24237;50.106;20.014;2022-08-25T07:56:33;27.90;99.90
38456;DHT22;24237;50.106;20.014;2022-08-25T07:58:58;28.00;99.90
38456;DHT22;24237;50.106;20.014;2022-08-25T08:01:25;27.80;99.90
38456;DHT22;24237;50.106;20.014;2022-08-25T08:03:51;27.80;99.90
38456;DHT22;24237;50.106;20.014;2022-08-25T08:06:20;27.80;99.90
38456;DHT22;24237;50.106;20.014;2022-08-25T08:08:48;27.70;99.90
38456;DHT22;24237;50.106;20.014;2022-08-25T08:11:20;28.10;99.90
38456;DHT22;24237;50.106;20.014;2022-08-25T08:13:46;28.10;99.90
38456;DHT22;24237;50.106;20.014;2022-08-25T08:16:16;28.20;99.90
38456;DHT22;24237;50.106;20.014;2022-08-25T08:18:43;28.30;99.90
38456;DHT22;24237;50.106;20.014;2022-08-25T08:21:16;28.40;99.90
38456;DHT22;24237;50.106;20.014;2022-08-25T08:23:42;28.70;99.90
38456;DHT22;24237;50.106;20.014;2022-08-25T08:26:08;28.90;99.90
38456;DHT22;24237;50.106;20.014;2022-08-25T08:28:34;28.50;99.90
38456;DHT22;24237;50.106;20.014;2022-08-25T08:31:00;28.50;99.90
38456;DHT22;24237;50.106;20.014;2022-08-25T08:33:26;28.30;99.90
38456;DHT22;24237;50.106;20.014;2022-08-25T08:36:06;28.20;99.90
38456;DHT22;24237;50.106;20.014;2022-08-25T08:38:33;28.40;99.90
38456;DHT22;24237;50.106;20.014;2022-08-25T08:44:41;28.60;99.90
38456;DHT22;24237;50.106;20.014;2022-08-25T08:47:27;28.70;99.90
38456;DHT22;24237;50.106;20.014;2022-08-25T08:53:02;28.20;99.90
38456;DHT22;24237;50.106;20.014;2022-08-25T08:55:42;28.20;99.90
38456;DHT22;24237;50.106;20.014;2022-08-25T08:58:23;28.30;99.90
38456;DHT22;24237;50.106;20.014;2022-08-25T09:00:53;28.50;99.90
38456;DHT22;24237;50.106;20.014;2022-08-25T09:03:39;28.50;99.90
38456;DHT22;24237;50.106;20.014;2022-08-25T09:06:11;28.50;99.90
38456;DHT22;24237;50.106;20.014;2022-08-25T09:08:39;28.40;99.90
38456;DHT22;24237;50.106;20.014;2022-08-25T09:11:13;28.70;99.90
38456;DHT22;24237;50.106;20.014;2022-08-25T09:14:08;29.00;99.90
38456;DHT22;24237;50.106;20.014;2022-08-25T09:16:44;28.70;99.90
38456;DHT22;24237;50.106;20.014;2022-08-25T09:32:41;28.30;99.90
38456;DHT22;24237;50.106;20.014;2022-08-25T09:35:33;28.40;99.90
38456;DHT22;24237;50.106;20.014;2022-08-25T09:38:08;28.60;99.90
38456;DHT22;24237;50.106;20.014;2022-08-25T09:40:36;28.70;99.90
38456;DHT22;24237;50.106;20.014;2022-08-25T09:43:08;28.70;99.90
38456;DHT22;24237;50.106;20.014;2022-08-25T09:45:57;28.60;99.90
38456;DHT22;24237;50.106;20.014;2022-08-25T09:48:41;28.60;99.90
38456;DHT22;24237;50.106;20.014;2022-08-25T09:51:24;28.80;99.90
38456;DHT22;24237;50.106;20.014;2022-08-25T09:56:23;29.30;99.90
38456;DHT22;24237;50.106;20.014;2022-08-25T09:58:49;29.40;99.90
38456;DHT22;24237;50.106;20.014;2022-08-25T10:01:20;29.50;99.90
38456;DHT22;24237;50.106;20.014;2022-08-25T10:04:03;29.40;99.90
38456;DHT22;24237;50.106;20.014;2022-08-25T10:06:49;29.30;99.90
38456;DHT22;24237;50.106;20.014;2022-08-25T10:09:26;29.20;99.90
38456;DHT22;24237;50.106;20.014;2022-08-25T10:11:54;28.80;99.90
38456;DHT22;24237;50.106;20.014;2022-08-25T10:14:37;28.80;99.90
38456;DHT22;24237;50.106;20.014;2022-08-25T10:17:28;29.00;99.90
38456;DHT22;24237;50.106;20.014;2022-08-25T10:22:39;28.90;99.90
38456;DHT22;24237;50.106;20.014;2022-08-25T10:25:08;29.40;99.90
38456;DHT22;24237;50.106;20.014;2022-08-25T10:28:04;29.60;99.90
38456;DHT22;24237;50.106;20.014;2022-08-25T10:34:01;29.80;99.90
38456;DHT22;24237;50.106;20.014;2022-08-25T10:40:09;30.00;99.90
38456;DHT22;24237;50.106;20.014;2022-08-25T10:56:36;30.00;99.90
38456;DHT22;24237;50.106;20.014;2022-08-25T10:59:26;30.10;99.90
38456;DHT22;24237;50.106;20.014;2022-08-25T11:04:52;30.50;99.90
38456;DHT22;24237;50.106;20.014;2022-08-25T11:07:34;30.40;99.90
38456;DHT22;24237;50.106;20.014;2022-08-25T11:10:14;30.60;99.90
38456;DHT22;24237;50.106;20.014;2022-08-25T11:12:44;30.40;99.90
38456;DHT22;24237;50.106;20.014;2022-08-25T11:15:20;30.60;99.90
38456;DHT22;24237;50.106;20.014;2022-08-25T11:17:56;30.90;99.90
38456;DHT22;24237;50.106;20.014;2022-08-25T11:20:44;30.80;99.90
38456;DHT22;24237;50.106;20.014;2022-08-25T11:23:27;31.20;99.90
38456;DHT22;24237;50.106;20.014;2022-08-25T11:26:07;31.00;99.90
38456;DHT22;24237;50.106;20.014;2022-08-25T11:28:48;30.80;99.90
38456;DHT22;24237;50.106;20.014;2022-08-25T11:31:16;30.50;99.90
38456;DHT22;24237;50.106;20.014;2022-08-25T11:33:43;30.50;99.90
38456;DHT22;24237;50.106;20.014;2022-08-25T11:36:15;31.10;99.90
38456;DHT22;24237;50.106;20.014;2022-08-25T11:50:59;31.80;99.90
38456;DHT22;24237;50.106;20.014;2022-08-25T11:53:37;32.10;99.90
38456;DHT22;24237;50.106;20.014;2022-08-25T11:58:52;32.40;99.90
38456;DHT22;24237;50.106;20.014;2022-08-25T12:04:13;31.90;99.90
38456;DHT22;24237;50.106;20.014;2022-08-25T12:12:38;32.00;99.90
38456;DHT22;24237;50.106;20.014;2022-08-25T12:15:25;32.10;99.90
38456;DHT22;24237;50.106;20.014;2022-08-25T12:18:16;31.40;99.90
38456;DHT22;24237;50.106;20.014;2022-08-25T12:24:08;31.90;99.90
38456;DHT22;24237;50.106;20.014;2022-08-25T12:26:54;32.50;99.90
38456;DHT22;24237;50.106;20.014;2022-08-25T12:29:29;33.00;99.90
38456;DHT22;24237;50.106;20.014;2022-08-25T12:32:19;33.50;99.90
38456;DHT22;24237;50.106;20.014;2022-08-25T12:35:08;34.10;99.90
38456;DHT22;24237;50.106;20.014;2022-08-25T12:40:32;35.10;99.00
38456;DHT22;24237;50.106;20.014;2022-08-25T12:43:21;35.50;98.50
38456;DHT22;24237;50.106;20.014;2022-08-25T12:45:53;35.60;98.20
38456;DHT22;24237;50.106;20.014;2022-08-25T12:51:03;35.80;98.10
38456;DHT22;24237;50.106;20.014;2022-08-25T12:53:42;36.00;97.40
38456;DHT22;24237;50.106;20.014;2022-08-25T12:56:31;35.50;97.40
38456;DHT22;24237;50.106;20.014;2022-08-25T13:07:26;35.80;96.20
38456;DHT22;24237;50.106;20.014;2022-08-25T13:15:03;37.20;94.20
38456;DHT22;24237;50.106;20.014;2022-08-25T13:17:31;38.10;93.00
38456;DHT22;24237;50.106;20.014;2022-08-25T13:20:17;37.00;93.10
38456;DHT22;24237;50.106;20.014;2022-08-25T13:22:46;36.80;93.70
38456;DHT22;24237;50.106;20.014;2022-08-25T13:25:22;37.20;92.90
38456;DHT22;24237;50.106;20.014;2022-08-25T13:27:50;37.60;92.60
38456;DHT22;24237;50.106;20.014;2022-08-25T13:30:31;37.30;92.40
38456;DHT22;24237;50.106;20.014;2022-08-25T13:32:58;37.70;92.20
38456;DHT22;24237;50.106;20.014;2022-08-25T13:35:30;38.00;91.70
38456;DHT22;24237;50.106;20.014;2022-08-25T13:38:23;38.30;91.40
38456;DHT22;24237;50.106;20.014;2022-08-25T13:41:02;38.70;90.80
38456;DHT22;24237;50.106;20.014;2022-08-25T13:43:28;38.30;90.70
38456;DHT22;24237;50.106;20.014;2022-08-25T13:45:53;38.50;90.90
38456;DHT22;24237;50.106;20.014;2022-08-25T13:48:35;38.60;90.50
38456;DHT22;24237;50.106;20.014;2022-08-25T13:51:19;39.10;88.60
38456;DHT22;24237;50.106;20.014;2022-08-25T13:53:54;37.60;89.10
38456;DHT22;24237;50.106;20.014;2022-08-25T13:58:55;37.00;89.20
38456;DHT22;24237;50.106;20.014;2022-08-25T14:01:28;36.10;89.60
38456;DHT22;24237;50.106;20.014;2022-08-25T14:04:18;35.70;90.40
38456;DHT22;24237;50.106;20.014;2022-08-25T14:06:42;35.90;90.10
38456;DHT22;24237;50.106;20.014;2022-08-25T14:09:13;36.90;90.10
38456;DHT22;24237;50.106;20.014;2022-08-25T14:11:55;37.30;89.30
38456;DHT22;24237;50.106;20.014;2022-08-25T14:17:07;37.70;87.80
38456;DHT22;24237;50.106;20.014;2022-08-25T14:19:34;38.00;85.50
38456;DHT22;24237;50.106;20.014;2022-08-25T14:22:01;38.10;85.80
38456;DHT22;24237;50.106;20.014;2022-08-25T14:24:32;38.30;86.30
38456;DHT22;24237;50.106;20.014;2022-08-25T14:26:58;38.30;85.50
38456;DHT22;24237;50.106;20.014;2022-08-25T14:29:24;37.90;85.50
38456;DHT22;24237;50.106;20.014;2022-08-25T14:31:50;37.40;86.60
38456;DHT22;24237;50.106;20.014;2022-08-25T14:34:34;37.40;87.00
38456;DHT22;24237;50.106;20.014;2022-08-25T14:37:05;37.20;86.40
38456;DHT22;24237;50.106;20.014;2022-08-25T14:39:32;36.40;87.60
38456;DHT22;24237;50.106;20.014;2022-08-25T14:41:58;36.90;88.00
38456;DHT22;24237;50.106;20.014;2022-08-25T14:44:24;37.50;87.30
38456;DHT22;24237;50.106;20.014;2022-08-25T14:46:50;37.20;86.00
38456;DHT22;24237;50.106;20.014;2022-08-25T14:49:23;37.00;85.90
38456;DHT22;24237;50.106;20.014;2022-08-25T14:51:52;37.10;85.50
38456;DHT22;24237;50.106;20.014;2022-08-25T14:54:18;37.00;85.60
38456;DHT22;24237;50.106;20.014;2022-08-25T14:56:46;37.70;85.20
38456;DHT22;24237;50.106;20.014;2022-08-25T14:59:13;37.70;84.20
38456;DHT22;24237;50.106;20.014;2022-08-25T15:01:39;37.70;84.60
38456;DHT22;24237;50.106;20.014;2022-08-25T15:04:17;37.40;84.30
38456;DHT22;24237;50.106;20.014;2022-08-25T15:06:43;37.30;84.30
38456;DHT22;24237;50.106;20.014;2022-08-25T15:09:13;37.80;84.50
38456;DHT22;24237;50.106;20.014;2022-08-25T15:11:48;37.60;84.70
38456;DHT22;24237;50.106;20.014;2022-08-25T15:14:14;37.50;85.70
38456;DHT22;24237;50.106;20.014;2022-08-25T15:16:41;37.80;84.60
38456;DHT22;24237;50.106;20.014;2022-08-25T15:19:09;38.00;84.00
38456;DHT22;24237;50.106;20.014;2022-08-25T15:21:39;37.00;85.50
38456;DHT22;24237;50.106;20.014;2022-08-25T15:24:06;37.30;85.70
38456;DHT22;24237;50.106;20.014;2022-08-25T15:26:39;37.20;85.10
38456;DHT22;24237;50.106;20.014;2022-08-25T15:29:05;37.40;84.30
38456;DHT22;24237;50.106;20.014;2022-08-25T15:31:31;36.90;84.70
38456;DHT22;24237;50.106;20.014;2022-08-25T15:33:56;35.80;85.80
38456;DHT22;24237;50.106;20.014;2022-08-25T15:36:25;35.80;86.00
38456;DHT22;24237;50.106;20.014;2022-08-25T15:38:51;35.60;86.80
38456;DHT22;24237;50.106;20.014;2022-08-25T15:41:18;35.50;86.70
38456;DHT22;24237;50.106;20.014;2022-08-25T15:43:45;35.70;86.70
38456;DHT22;24237;50.106;20.014;2022-08-25T15:46:13;35.10;87.30
38456;DHT22;24237;50.106;20.014;2022-08-25T15:48:40;34.90;88.10
38456;DHT22;24237;50.106;20.014;2022-08-25T15:51:06;34.70;88.30
38456;DHT22;24237;50.106;20.014;2022-08-25T15:53:33;34.30;88.80
38456;DHT22;24237;50.106;20.014;2022-08-25T15:55:59;34.30;89.10
38456;DHT22;24237;50.106;20.014;2022-08-25T15:58:26;34.40;89.30
38456;DHT22;24237;50.106;20.014;2022-08-25T16:00:51;33.50;90.30
38456;DHT22;24237;50.106;20.014;2022-08-25T16:03:17;32.80;90.90
38456;DHT22;24237;50.106;20.014;2022-08-25T16:05:43;32.50;91.20
38456;DHT22;24237;50.106;20.014;2022-08-25T16:08:10;32.00;91.30
38456;DHT22;24237;50.106;20.014;2022-08-25T16:10:39;31.80;91.30
38456;DHT22;24237;50.106;20.014;2022-08-25T16:13:06;31.60;91.80
38456;DHT22;24237;50.106;20.014;2022-08-25T16:15:32;31.60;91.90
38456;DHT22;24237;50.106;20.014;2022-08-25T16:17:59;31.40;91.90
38456;DHT22;24237;50.106;20.014;2022-08-25T16:20:26;31.30;92.00
38456;DHT22;24237;50.106;20.014;2022-08-25T16:22:52;31.20;92.10
38456;DHT22;24237;50.106;20.014;2022-08-25T16:25:18;30.90;92.20
38456;DHT22;24237;50.106;20.014;2022-08-25T16:27:44;30.80;92.50
38456;DHT22;24237;50.106;20.014;2022-08-25T16:30:12;31.00;92.70
38456;DHT22;24237;50.106;20.014;2022-08-25T16:32:38;31.10;92.60
38456;DHT22;24237;50.106;20.014;2022-08-25T16:35:05;31.10;92.40
38456;DHT22;24237;50.106;20.014;2022-08-25T16:37:34;31.40;92.30
38456;DHT22;24237;50.106;20.014;2022-08-25T16:40:00;31.50;92.10
38456;DHT22;24237;50.106;20.014;2022-08-25T16:42:26;31.20;92.60
38456;DHT22;24237;50.106;20.014;2022-08-25T16:44:53;30.90;93.00
38456;DHT22;24237;50.106;20.014;2022-08-25T16:47:19;30.80;93.10
38456;DHT22;24237;50.106;20.014;2022-08-25T16:49:45;30.70;93.10
38456;DHT22;24237;50.106;20.014;2022-08-25T16:52:12;30.50;93.10
38456;DHT22;24237;50.106;20.014;2022-08-25T16:54:57;30.40;93.30
38456;DHT22;24237;50.106;20.014;2022-08-25T16:57:42;30.40;93.50
38456;DHT22;24237;50.106;20.014;2022-08-25T17:00:10;30.60;93.50
38456;DHT22;24237;50.106;20.014;2022-08-25T17:02:38;30.60;93.60
38456;DHT22;24237;50.106;20.014;2022-08-25T17:05:04;30.40;93.70
38456;DHT22;24237;50.106;20.014;2022-08-25T17:07:31;30.40;94.00
38456;DHT22;24237;50.106;20.014;2022-08-25T17:09:56;30.30;94.20
38456;DHT22;24237;50.106;20.014;2022-08-25T17:12:23;30.40;94.40
38456;DHT22;24237;50.106;20.014;2022-08-25T17:14:49;30.20;94.70
38456;DHT22;24237;50.106;20.014;2022-08-25T17:17:15;30.00;94.80
38456;DHT22;24237;50.106;20.014;2022-08-25T17:19:41;29.80;94.80
38456;DHT22;24237;50.106;20.014;2022-08-25T17:22:07;29.70;95.20